Time;durP1;ratioP1;P1;durP2;ratioP2;P2;SDS_P1;SDS_P2;PMS_P1;PMS_P2;Temp;Humidity;BMP_temperature;BMP_pressure;BME280_temperature;BME280_humidity;BME280_pressure;Samples;Min_cycle;Max_cycle;Signal;HPM_P1;HPM_P2
2023/11/01 00:02:06;;;;;;;2.00;1.03;;;7.50;99.90;;;;;;5055521;28;20185;-62
2023/11/01 00:04:32;;;;;;;0.80;0.80;;;7.60;99.90;;;;;;5060673;28;20229;-62
2023/11/01 00:06:58;;;;;;;3.37;1.10;;;7.50;99.90;;;;;;5038102;28;20736;-61
2023/11/01 00:09:24;;;;;;;0.93;0.83;;;7.50;99.90;;;;;;5067263;28;20443;-64
2023/11/01 00:11:50;;;;;;;1.47;1.03;;;7.50;99.90;;;;;;5055198;28;20209;-63
2023/11/01 00:14:16;;;;;;;1.13;1.03;;;7.50;99.90;;;;;;5052932;28;20439;-64
2023/11/01 00:16:41;;;;;;;0.90;0.80;;;7.60;99.90;;;;;;5050163;28;20196;-63
2023/11/01 00:19:08;;;;;;;1.50;1.20;;;7.60;99.90;;;;;;5065758;28;20586;-62
2023/11/01 00:21:33;;;;;;;1.20;0.80;;;7.60;99.90;;;;;;5061401;28;20213;-63
2023/11/01 00:23:59;;;;;;;1.50;1.40;;;7.60;99.90;;;;;;5056864;28;20405;-62
2023/11/01 00:26:25;;;;;;;1.43;1.27;;;7.70;99.90;;;;;;5062399;28;20203;-63
2023/11/01 00:28:50;;;;;;;1.90;1.23;;;7.70;99.90;;;;;;5057712;28;20181;-63
2023/11/01 00:31:16;;;;;;;1.73;1.10;;;7.70;99.90;;;;;;5035780;28;20242;-63
2023/11/01 00:33:42;;;;;;;3.57;1.37;;;7.70;99.90;;;;;;5061074;28;20239;-64
2023/11/01 00:36:08;;;;;;;2.40;1.20;;;7.70;99.90;;;;;;5056803;28;20205;-64
2023/11/01 00:38:37;;;;;;;1.30;1.17;;;7.80;99.90;;;;;;5064886;28;20420;-64
2023/11/01 00:41:03;;;;;;;3.40;1.63;;;7.80;99.90;;;;;;5056056;28;20422;-64
2023/11/01 00:43:30;;;;;;;2.80;1.50;;;7.80;99.90;;;;;;5068290;28;20431;-64
2023/11/01 00:45:56;;;;;;;1.03;0.90;;;7.80;99.90;;;;;;5054007;28;20447;-64
2023/11/01 00:48:22;;;;;;;4.50;1.20;;;7.70;99.90;;;;;;5046209;28;20435;-64
2023/11/01 00:50:48;;;;;;;2.57;1.00;;;7.70;99.90;;;;;;5052233;28;20180;-64
2023/11/01 00:53:13;;;;;;;4.97;1.30;;;7.70;99.90;;;;;;5067515;28;20839;-64
2023/11/01 00:55:39;;;;;;;3.40;1.30;;;7.80;99.90;;;;;;5049717;28;20484;-64
2023/11/01 00:58:05;;;;;;;1.70;1.30;;;7.70;99.90;;;;;;5059869;28;20406;-64
2023/11/01 01:00:31;;;;;;;1.80;1.00;;;7.80;99.90;;;;;;5041941;28;20174;-64
2023/11/01 01:02:56;;;;;;;2.77;1.20;;;7.80;99.90;;;;;;5050947;28;20930;-65
2023/11/01 01:05:23;;;;;;;2.07;0.90;;;7.80;99.90;;;;;;5051958;28;20255;-65
2023/11/01 01:07:49;;;;;;;1.83;1.23;;;7.70;99.90;;;;;;5051197;28;20177;-64
2023/11/01 01:10:15;;;;;;;1.33;1.07;;;7.80;99.90;;;;;;5060471;28;20438;-64
2023/11/01 01:12:41;;;;;;;1.17;0.90;;;7.80;99.90;;;;;;5067738;28;20611;-65
2023/11/01 01:15:08;;;;;;;2.50;0.90;;;7.80;99.90;;;;;;5054251;28;20865;-64
2023/11/01 01:17:33;;;;;;;2.50;1.40;;;7.80;99.90;;;;;;5067798;28;20216;-65
2023/11/01 01:19:59;;;;;;;2.43;1.20;;;7.80;99.90;;;;;;5056369;28;20461;-64
2023/11/01 01:22:24;;;;;;;1.23;1.10;;;7.80;99.90;;;;;;5054686;28;20171;-64
2023/11/01 01:24:50;;;;;;;2.80;1.00;;;7.90;99.90;;;;;;5056712;28;20265;-63
2023/11/01 01:27:16;;;;;;;3.20;0.93;;;7.90;99.90;;;;;;5051204;28;20192;-65
2023/11/01 01:29:41;;;;;;;1.17;0.97;;;7.90;99.90;;;;;;5055325;28;20257;-65
2023/11/01 01:32:07;;;;;;;2.83;1.00;;;7.90;99.90;;;;;;5054585;28;20249;-65
2023/11/01 01:34:33;;;;;;;1.10;0.90;;;7.90;99.90;;;;;;5051506;28;20173;-65
2023/11/01 01:36:58;;;;;;;3.63;0.90;;;7.80;99.90;;;;;;5051374;28;20322;-65
2023/11/01 01:39:24;;;;;;;1.30;0.93;;;7.90;99.90;;;;;;5051513;28;20187;-65
2023/11/01 01:41:49;;;;;;;1.63;1.00;;;8.00;99.90;;;;;;5048238;28;20646;-66
2023/11/01 01:44:15;;;;;;;0.97;0.90;;;8.00;99.90;;;;;;5071323;28;20557;-65
2023/11/01 01:46:41;;;;;;;2.90;1.00;;;8.00;99.90;;;;;;5071035;28;20286;-65
2023/11/01 01:49:07;;;;;;;0.97;0.80;;;8.10;99.90;;;;;;5071056;28;20172;-64
2023/11/01 01:51:34;;;;;;;1.20;1.00;;;8.10;99.90;;;;;;5071168;28;20505;-65
2023/11/01 01:54:01;;;;;;;0.83;0.77;;;8.00;99.90;;;;;;5071299;28;20418;-65
2023/11/01 01:56:28;;;;;;;1.17;0.80;;;8.00;99.90;;;;;;5064804;28;20515;-65
2023/11/01 01:58:54;;;;;;;2.37;1.20;;;8.00;99.90;;;;;;5049281;28;20465;-65
2023/11/01 02:01:21;;;;;;;2.40;1.10;;;8.00;99.90;;;;;;5051139;28;20813;-65
2023/11/01 02:03:47;;;;;;;2.40;0.80;;;8.00;99.90;;;;;;5052873;28;20415;-64
2023/11/01 02:06:12;;;;;;;3.53;2.03;;;8.00;99.90;;;;;;5054602;28;20467;-65
2023/11/01 02:08:38;;;;;;;2.40;0.87;;;8.00;99.90;;;;;;5054810;28;20255;-65
2023/11/01 02:11:04;;;;;;;1.47;0.90;;;8.00;99.90;;;;;;5054662;28;20247;-65
2023/11/01 02:13:30;;;;;;;4.00;1.00;;;8.10;99.90;;;;;;5054321;28;20408;-64
2023/11/01 02:15:56;;;;;;;2.83;0.90;;;8.10;99.90;;;;;;5051663;28;20478;-65
2023/11/01 02:18:22;;;;;;;1.90;0.90;;;8.10;99.90;;;;;;5059283;28;20751;-64
2023/11/01 02:20:49;;;;;;;1.43;1.00;;;8.10;99.90;;;;;;5074537;28;20170;-64
2023/11/01 02:23:15;;;;;;;1.60;1.00;;;8.20;99.90;;;;;;5058256;28;20269;-64
2023/11/01 02:25:41;;;;;;;1.87;0.97;;;8.20;99.90;;;;;;5053760;28;20440;-65
2023/11/01 02:28:09;;;;;;;2.50;1.13;;;8.20;99.90;;;;;;5043222;28;20440;-63
2023/11/01 02:30:35;;;;;;;1.40;1.13;;;8.20;99.90;;;;;;5054254;28;20460;-65
2023/11/01 02:33:01;;;;;;;1.10;1.00;;;8.20;99.90;;;;;;5062895;28;20992;-65
2023/11/01 02:35:26;;;;;;;2.80;0.80;;;8.20;99.90;;;;;;5069741;28;20201;-64
2023/11/01 02:37:52;;;;;;;1.23;1.13;;;8.20;99.90;;;;;;5054801;28;20166;-64
2023/11/01 02:40:18;;;;;;;1.07;0.93;;;8.20;99.90;;;;;;5053962;28;20651;-64
2023/11/01 02:42:45;;;;;;;2.70;1.13;;;8.30;99.90;;;;;;5054100;28;20285;-64
2023/11/01 02:45:11;;;;;;;1.83;1.10;;;8.30;99.90;;;;;;5035619;28;20644;-65
2023/11/01 02:47:38;;;;;;;5.20;1.50;;;8.30;99.90;;;;;;5053216;28;20816;-65
2023/11/01 02:50:05;;;;;;;2.00;1.20;;;8.30;99.90;;;;;;5053128;28;20438;-65
2023/11/01 02:52:34;;;;;;;1.50;1.23;;;8.30;99.90;;;;;;5037457;28;20851;-65
2023/11/01 02:55:01;;;;;;;2.97;1.33;;;8.30;99.90;;;;;;5058928;28;20446;-65
2023/11/01 02:57:27;;;;;;;3.63;1.40;;;8.30;99.90;;;;;;5073785;28;20913;-65
2023/11/01 02:59:53;;;;;;;4.20;2.07;;;8.30;99.90;;;;;;5073477;28;20512;-65
2023/11/01 03:02:18;;;;;;;1.70;1.53;;;8.40;99.90;;;;;;5073719;28;20706;-65
2023/11/01 03:04:44;;;;;;;1.50;1.27;;;8.30;99.90;;;;;;5073624;28;20223;-64
2023/11/01 03:07:09;;;;;;;1.43;1.20;;;8.30;99.90;;;;;;5066343;28;20228;-65
2023/11/01 03:09:35;;;;;;;2.43;0.83;;;8.20;99.90;;;;;;5053478;28;20248;-64
2023/11/01 03:12:00;;;;;;;1.27;0.90;;;8.30;99.90;;;;;;5053223;28;20649;-66
2023/11/01 03:14:26;;;;;;;6.03;1.27;;;8.30;99.90;;;;;;5050855;28;20176;-63
2023/11/01 03:16:51;;;;;;;1.23;1.10;;;8.20;99.90;;;;;;5052456;28;20197;-64
2023/11/01 03:19:17;;;;;;;2.33;1.30;;;8.30;99.90;;;;;;5053077;28;20178;-64
2023/11/01 03:21:43;;;;;;;5.13;2.03;;;8.30;99.90;;;;;;5057936;28;20173;-64
2023/11/01 03:24:08;;;;;;;7.40;1.27;;;8.20;99.90;;;;;;5062105;28;20233;-63
2023/11/01 03:26:34;;;;;;;1.80;1.17;;;8.20;99.90;;;;;;5053559;28;20193;-64
2023/11/01 03:29:00;;;;;;;2.60;1.30;;;8.30;99.90;;;;;;5053488;28;20173;-64
2023/11/01 03:31:26;;;;;;;2.73;1.37;;;8.30;99.90;;;;;;5051834;28;20219;-64
2023/11/01 03:33:51;;;;;;;1.77;1.27;;;8.30;99.90;;;;;;5055288;28;20428;-63
2023/11/01 03:36:17;;;;;;;2.03;1.60;;;8.30;99.90;;;;;;5052553;28;20443;-64
2023/11/01 03:38:43;;;;;;;1.40;0.93;;;8.30;99.90;;;;;;5053113;28;20530;-63
2023/11/01 03:41:09;;;;;;;2.00;0.90;;;8.20;99.90;;;;;;5032919;28;20179;-64
2023/11/01 03:43:36;;;;;;;2.20;0.87;;;8.20;99.90;;;;;;5057180;28;20418;-64
2023/11/01 03:46:02;;;;;;;1.53;0.90;;;8.20;99.90;;;;;;5047838;28;20436;-64
2023/11/01 03:48:27;;;;;;;1.10;1.00;;;8.20;99.90;;;;;;5062224;28;20421;-63
2023/11/01 03:50:53;;;;;;;2.07;1.10;;;8.20;99.90;;;;;;5065562;28;20444;-65
2023/11/01 03:53:19;;;;;;;1.33;1.10;;;8.20;99.90;;;;;;5051072;28;20188;-66
2023/11/01 03:55:44;;;;;;;1.90;1.70;;;8.20;99.90;;;;;;5052422;28;20420;-64
2023/11/01 03:58:10;;;;;;;1.40;1.30;;;8.20;99.90;;;;;;5048584;28;20667;-63
2023/11/01 04:00:35;;;;;;;8.13;1.60;;;8.20;99.90;;;;;;5055904;28;20231;-64
2023/11/01 04:03:01;;;;;;;4.57;1.80;;;8.20;99.90;;;;;;5051401;28;20229;-63
2023/11/01 04:05:26;;;;;;;1.33;1.23;;;8.10;99.90;;;;;;5051868;28;20760;-64
2023/11/01 04:07:52;;;;;;;1.47;1.37;;;8.20;99.90;;;;;;5052480;28;20177;-64
2023/11/01 04:10:18;;;;;;;1.80;1.27;;;8.20;99.90;;;;;;5050696;28;20186;-64
2023/11/01 04:12:44;;;;;;;1.57;1.47;;;8.10;99.90;;;;;;5034421;28;20596;-63
2023/11/01 04:15:13;;;;;;;1.30;1.20;;;8.20;99.90;;;;;;5050206;28;20174;-63
2023/11/01 04:17:39;;;;;;;2.30;1.10;;;8.20;99.90;;;;;;5063989;28;20173;-66
2023/11/01 04:20:08;;;;;;;1.00;0.90;;;8.20;99.90;;;;;;5072072;28;20905;-64
2023/11/01 04:22:37;;;;;;;2.10;1.30;;;8.10;99.90;;;;;;5051911;28;21057;-64
2023/11/01 04:25:05;;;;;;;1.73;1.20;;;8.20;99.90;;;;;;5057239;28;20436;-64
2023/11/01 04:27:34;;;;;;;1.67;1.00;;;8.10;99.90;;;;;;5071546;28;20460;-64
2023/11/01 04:30:00;;;;;;;1.93;1.00;;;8.00;99.90;;;;;;5055286;28;20423;-63
2023/11/01 04:32:28;;;;;;;2.53;1.57;;;8.00;99.90;;;;;;5052241;28;20546;-65
2023/11/01 04:34:55;;;;;;;1.43;1.23;;;8.00;99.90;;;;;;5051694;28;20714;-64
2023/11/01 04:37:23;;;;;;;2.63;1.10;;;8.00;99.90;;;;;;5052156;28;20432;-66
2023/11/01 04:39:48;;;;;;;1.97;1.00;;;8.10;99.90;;;;;;5049724;28;20543;-63
2023/11/01 04:42:18;;;;;;;1.20;1.10;;;8.10;99.90;;;;;;5051294;28;21060;-64
2023/11/01 04:44:46;;;;;;;2.00;1.80;;;8.00;99.90;;;;;;5046166;28;20194;-64
2023/11/01 04:47:12;;;;;;;4.47;1.23;;;8.00;99.90;;;;;;5046525;28;20441;-63
2023/11/01 04:49:38;;;;;;;1.37;1.13;;;8.00;99.90;;;;;;5051839;28;20419;-63
2023/11/01 04:52:06;;;;;;;1.47;1.30;;;8.00;99.90;;;;;;5057776;28;20505;-64
2023/11/01 04:54:33;;;;;;;2.43;1.50;;;8.10;99.90;;;;;;5058834;28;20448;-64
2023/11/01 04:57:00;;;;;;;3.47;1.13;;;8.20;99.90;;;;;;5048976;28;20460;-63
2023/11/01 04:59:30;;;;;;;2.20;1.17;;;8.10;99.90;;;;;;5051404;28;20414;-64
2023/11/01 05:01:56;;;;;;;2.40;1.13;;;8.10;99.90;;;;;;5051192;28;20421;-63
2023/11/01 05:04:22;;;;;;;1.73;1.33;;;8.10;99.90;;;;;;5040440;28;20485;-64
2023/11/01 05:06:47;;;;;;;4.13;1.30;;;8.10;99.90;;;;;;5049824;28;20519;-64
2023/11/01 05:09:13;;;;;;;1.50;1.40;;;8.10;99.90;;;;;;5050433;28;20192;-64
2023/11/01 05:11:39;;;;;;;2.30;1.40;;;8.10;99.90;;;;;;5049727;28;20202;-64
2023/11/01 05:14:05;;;;;;;2.90;1.40;;;8.10;99.90;;;;;;5051113;28;20666;-64
2023/11/01 05:16:30;;;;;;;1.07;1.00;;;8.10;99.90;;;;;;5050695;28;20440;-64
2023/11/01 05:18:56;;;;;;;1.20;1.10;;;8.10;99.90;;;;;;5050609;28;20594;-64
2023/11/01 05:21:21;;;;;;;3.90;1.40;;;8.00;99.90;;;;;;5046009;28;20181;-64
2023/11/01 05:23:47;;;;;;;1.63;0.90;;;8.00;99.90;;;;;;5051004;28;20177;-64
2023/11/01 05:26:16;;;;;;;3.67;1.40;;;8.10;99.90;;;;;;5056072;28;20210;-65
2023/11/01 05:28:42;;;;;;;1.47;1.20;;;8.10;99.90;;;;;;5047439;28;20173;-64
2023/11/01 05:31:08;;;;;;;2.40;1.77;;;8.10;99.90;;;;;;5050741;28;20906;-64
2023/11/01 05:33:34;;;;;;;1.33;1.23;;;8.20;99.90;;;;;;5049393;28;21836;-65
2023/11/01 05:36:06;;;;;;;6.57;1.60;;;8.20;99.90;;;;;;5051379;28;20916;-65
2023/11/01 05:38:32;;;;;;;1.23;1.13;;;8.20;99.90;;;;;;5048011;28;20182;-64
2023/11/01 05:40:58;;;;;;;2.53;1.40;;;8.20;99.90;;;;;;5040973;28;20451;-64
2023/11/01 05:43:23;;;;;;;1.87;1.50;;;8.10;99.90;;;;;;5054463;28;20417;-64
2023/11/01 05:45:49;;;;;;;1.10;1.00;;;8.10;99.90;;;;;;5052365;28;20560;-63
2023/11/01 05:48:15;;;;;;;2.73;1.70;;;8.20;99.90;;;;;;5054986;28;20171;-64
2023/11/01 05:50:43;;;;;;;1.80;1.43;;;8.30;99.90;;;;;;5051344;28;20246;-63
2023/11/01 05:53:10;;;;;;;1.93;1.10;;;8.20;99.90;;;;;;5054733;28;20202;-61
2023/11/01 05:55:39;;;;;;;2.10;1.43;;;8.10;99.90;;;;;;5035594;28;20437;-63
2023/11/01 05:58:08;;;;;;;3.60;1.30;;;8.10;99.90;;;;;;5055483;28;20902;-63
2023/11/01 06:00:36;;;;;;;2.97;1.27;;;8.10;99.90;;;;;;5053786;28;20478;-64
2023/11/01 06:03:06;;;;;;;1.57;1.20;;;8.20;99.90;;;;;;5054481;28;20419;-63
2023/11/01 06:05:34;;;;;;;2.40;1.30;;;8.10;99.90;;;;;;5047687;28;20504;-63
2023/11/01 06:07:59;;;;;;;1.67;1.33;;;8.20;99.90;;;;;;5052951;28;20574;-65
2023/11/01 06:10:25;;;;;;;1.93;1.27;;;8.20;99.90;;;;;;5054486;28;20517;-62
2023/11/01 06:12:50;;;;;;;1.37;1.20;;;8.20;99.90;;;;;;5050411;28;20342;-61
2023/11/01 06:15:16;;;;;;;3.13;1.47;;;8.20;99.90;;;;;;5067128;28;20582;-63
2023/11/01 06:17:42;;;;;;;1.50;1.37;;;8.20;99.90;;;;;;5054133;28;20269;-64
2023/11/01 06:20:08;;;;;;;2.20;1.30;;;8.10;99.90;;;;;;5053919;28;20361;-63
2023/11/01 06:22:33;;;;;;;1.57;1.47;;;8.10;99.90;;;;;;5061648;28;20185;-62
2023/11/01 06:25:00;;;;;;;5.17;1.70;;;8.20;99.90;;;;;;5051503;28;20486;-63
2023/11/01 06:27:26;;;;;;;1.40;1.30;;;8.20;99.90;;;;;;5054037;28;20836;-63
2023/11/01 06:29:52;;;;;;;1.47;1.37;;;8.30;99.90;;;;;;5050383;28;20427;-63
2023/11/01 06:32:18;;;;;;;1.57;1.30;;;8.30;99.90;;;;;;5069418;28;20451;-64
2023/11/01 06:34:43;;;;;;;1.73;1.40;;;8.20;99.90;;;;;;5052046;28;20460;-63
2023/11/01 06:37:09;;;;;;;2.07;1.30;;;8.20;99.90;;;;;;5073506;28;20563;-64
2023/11/01 06:39:35;;;;;;;2.20;1.13;;;8.20;99.90;;;;;;5067429;28;20172;-64
2023/11/01 06:42:02;;;;;;;2.13;1.10;;;8.30;99.90;;;;;;5054428;28;20645;-63
2023/11/01 06:44:28;;;;;;;2.93;1.10;;;8.30;99.90;;;;;;5053211;28;20417;-63
2023/11/01 06:46:54;;;;;;;2.90;1.10;;;8.30;99.90;;;;;;5050919;28;20433;-64
2023/11/01 06:49:20;;;;;;;6.70;1.47;;;8.30;99.90;;;;;;5053304;28;20966;-63
2023/11/01 06:51:46;;;;;;;1.90;1.03;;;8.30;99.90;;;;;;5040737;28;20234;-62
2023/11/01 06:54:11;;;;;;;4.13;1.20;;;8.30;99.90;;;;;;5059513;28;20949;-63
2023/11/01 06:56:43;;;;;;;1.30;1.20;;;8.40;99.90;;;;;;5062148;28;20205;-63
2023/11/01 06:59:09;;;;;;;4.33;1.10;;;8.40;99.90;;;;;;5052765;28;20176;-63
2023/11/01 07:01:35;;;;;;;2.27;1.23;;;8.40;99.90;;;;;;5050117;28;20801;-64
2023/11/01 07:04:01;;;;;;;1.70;1.30;;;8.50;99.90;;;;;;5050459;28;20175;-63
2023/11/01 07:06:27;;;;;;;1.50;1.10;;;8.50;99.90;;;;;;5067007;28;20444;-64
2023/11/01 07:08:52;;;;;;;2.47;1.40;;;8.60;99.90;;;;;;5038640;28;20774;-63
2023/11/01 07:11:19;;;;;;;1.77;1.30;;;8.50;99.90;;;;;;5062845;28;20285;-63
2023/11/01 07:13:45;;;;;;;2.13;1.20;;;8.50;99.90;;;;;;5053033;28;20205;-63
2023/11/01 07:16:10;;;;;;;2.27;1.73;;;8.50;99.90;;;;;;5053018;28;20812;-61
2023/11/01 07:18:40;;;;;;;1.93;1.27;;;8.60;99.90;;;;;;5052966;28;20419;-62
2023/11/01 07:21:05;;;;;;;2.30;1.30;;;8.50;99.90;;;;;;5046965;28;20189;-67
2023/11/01 07:23:32;;;;;;;1.80;1.20;;;8.60;99.90;;;;;;5069021;28;20416;-63
2023/11/01 07:25:58;;;;;;;16.20;9.93;;;8.60;99.90;;;;;;5058760;28;20467;-65
2023/11/01 07:28:23;;;;;;;24.03;14.53;;;8.60;99.90;;;;;;5073580;28;20496;-63
2023/11/01 07:30:49;;;;;;;16.53;9.70;;;8.70;99.90;;;;;;5057059;28;20171;-59
2023/11/01 07:33:14;;;;;;;2.43;2.23;;;8.70;99.90;;;;;;5053121;28;20302;-62
2023/11/01 07:35:40;;;;;;;3.33;1.60;;;8.80;99.90;;;;;;5046996;28;20266;-62
2023/11/01 07:38:06;;;;;;;4.83;1.40;;;8.80;99.90;;;;;;5048365;28;20177;-62
2023/11/01 07:40:31;;;;;;;12.23;6.50;;;8.80;99.90;;;;;;5052416;28;20220;-61
2023/11/01 07:42:57;;;;;;;3.83;1.47;;;8.80;99.90;;;;;;5052547;28;20269;-60
2023/11/01 07:45:22;;;;;;;1.57;1.10;;;8.90;99.90;;;;;;5052784;28;20221;-59
2023/11/01 07:47:48;;;;;;;1.77;1.57;;;9.00;99.90;;;;;;5052273;28;20175;-64
2023/11/01 07:50:14;;;;;;;3.27;1.60;;;9.00;99.90;;;;;;5062795;28;20174;-63
2023/11/01 07:52:40;;;;;;;1.73;1.47;;;9.10;99.90;;;;;;5051776;28;20289;-60
2023/11/01 07:55:05;;;;;;;1.83;1.33;;;9.30;99.90;;;;;;5047886;28;20600;-60
2023/11/01 07:57:32;;;;;;;4.30;1.43;;;9.70;99.90;;;;;;5052405;28;20445;-61
2023/11/01 07:59:57;;;;;;;1.93;1.53;;;10.60;99.90;;;;;;5048504;28;20214;-60
2023/11/01 08:02:24;;;;;;;2.03;1.30;;;11.20;99.90;;;;;;5051644;28;20413;-60
2023/11/01 08:04:49;;;;;;;1.97;1.70;;;11.70;99.90;;;;;;5051720;28;20198;-63
2023/11/01 08:07:15;;;;;;;2.00;1.40;;;12.50;99.90;;;;;;5034455;28;20521;-61
2023/11/01 08:09:41;;;;;;;2.73;1.40;;;12.10;99.90;;;;;;5052772;28;20525;-63
2023/11/01 08:12:07;;;;;;;3.00;2.00;;;12.20;99.90;;;;;;5060878;28;20202;-63
2023/11/01 08:14:33;;;;;;;2.30;1.63;;;12.20;99.90;;;;;;5052459;28;20174;-63
2023/11/01 08:16:59;;;;;;;1.47;1.37;;;12.40;99.90;;;;;;5052093;28;20445;-63
2023/11/01 08:19:24;;;;;;;5.73;1.40;;;12.20;99.90;;;;;;5052030;28;20912;-64
2023/11/01 08:21:50;;;;;;;6.50;2.57;;;11.70;99.90;;;;;;5049352;28;20224;-64
2023/11/01 08:24:15;;;;;;;2.93;1.80;;;10.90;99.90;;;;;;5066588;28;20211;-63
2023/11/01 08:26:41;;;;;;;9.97;1.87;;;10.80;99.90;;;;;;5067223;28;20190;-63
2023/11/01 08:29:09;;;;;;;5.63;2.03;;;11.10;99.90;;;;;;5051843;28;20232;-61
2023/11/01 08:31:35;;;;;;;1.83;1.33;;;11.30;99.90;;;;;;5049011;28;20252;-63
2023/11/01 08:34:00;;;;;;;2.97;1.80;;;12.20;99.90;;;;;;5050921;28;20417;-65
2023/11/01 08:36:26;;;;;;;2.10;1.73;;;12.40;99.90;;;;;;5034145;28;20187;-62
2023/11/01 08:38:52;;;;;;;5.43;1.93;;;12.90;99.90;;;;;;5051429;28;20182;-62
2023/11/01 08:41:19;;;;;;;5.33;2.00;;;13.40;99.90;;;;;;5052160;28;20638;-62
2023/11/01 08:43:44;;;;;;;3.00;1.73;;;13.70;99.90;;;;;;5050200;28;20178;-62
2023/11/01 08:46:13;;;;;;;4.93;2.50;;;14.30;99.90;;;;;;5052034;28;20437;-62
2023/11/01 08:48:39;;;;;;;1.60;1.50;;;14.40;99.90;;;;;;5049603;28;20340;-61
2023/11/01 08:51:04;;;;;;;1.80;1.43;;;14.50;99.90;;;;;;5051637;28;20413;-63
2023/11/01 08:53:30;;;;;;;4.50;1.90;;;14.90;99.90;;;;;;5051942;28;20631;-62
2023/11/01 08:55:55;;;;;;;4.13;1.70;;;14.70;99.90;;;;;;5051282;28;20254;-63
2023/11/01 08:58:21;;;;;;;2.47;1.87;;;14.30;99.90;;;;;;5051212;28;20243;-63
2023/11/01 09:00:47;;;;;;;7.23;1.70;;;13.30;99.90;;;;;;5049796;28;20171;-61
2023/11/01 09:03:13;;;;;;;1.40;1.30;;;12.60;99.90;;;;;;5047539;28;20194;-62
2023/11/01 09:05:39;;;;;;;3.30;1.93;;;12.50;99.90;;;;;;5066760;28;20240;-63
2023/11/01 09:08:04;;;;;;;3.23;1.80;;;12.30;99.90;;;;;;5052241;28;20433;-61
2023/11/01 09:10:30;;;;;;;3.17;2.50;;;12.40;99.90;;;;;;5071296;28;20659;-61
2023/11/01 09:12:56;;;;;;;6.20;1.80;;;12.50;99.90;;;;;;5059777;28;20651;-63
2023/11/01 09:15:22;;;;;;;4.60;1.77;;;12.90;99.90;;;;;;5054533;28;20195;-63
2023/11/01 09:17:48;;;;;;;3.70;2.17;;;13.00;99.90;;;;;;5049486;28;20919;-65
2023/11/01 09:20:14;;;;;;;3.43;2.07;;;13.20;99.90;;;;;;5050172;28;20227;-66
2023/11/01 09:22:40;;;;;;;3.13;1.80;;;13.70;99.90;;;;;;5044723;28;21076;-62
2023/11/01 09:25:06;;;;;;;2.00;1.63;;;13.50;99.90;;;;;;5044773;28;20310;-62
2023/11/01 09:27:32;;;;;;;3.93;1.87;;;13.40;99.90;;;;;;5054214;28;20426;-62
2023/11/01 09:29:57;;;;;;;4.23;2.30;;;12.70;99.90;;;;;;5040346;28;20426;-63
2023/11/01 09:32:23;;;;;;;2.73;2.03;;;12.50;99.90;;;;;;5041480;28;20250;-63
2023/11/01 09:34:49;;;;;;;4.47;2.20;;;12.70;99.90;;;;;;5049320;28;20647;-61
2023/11/01 09:37:14;;;;;;;3.20;2.07;;;12.40;99.90;;;;;;5048686;28;20201;-62
2023/11/01 09:39:40;;;;;;;3.63;2.23;;;12.30;99.90;;;;;;5050904;28;20257;-64
2023/11/01 09:42:26;;;;;;;4.33;2.30;;;12.50;99.90;;;;;;5051168;28;20174;-63
2023/11/01 09:44:55;;;;;;;4.00;2.43;;;12.60;99.90;;;;;;5051608;28;20222;-61
2023/11/01 09:47:26;;;;;;;3.00;2.70;;;12.50;99.90;;;;;;5051208;28;20944;-62
2023/11/01 09:49:54;;;;;;;4.90;2.80;;;12.20;99.90;;;;;;5051514;28;20443;-63
2023/11/01 09:52:20;;;;;;;3.50;2.63;;;12.20;99.90;;;;;;5049478;28;20465;-63
2023/11/01 09:54:46;;;;;;;5.90;2.43;;;12.20;99.90;;;;;;5026225;28;20424;-62
2023/11/01 09:57:15;;;;;;;3.10;2.30;;;12.20;99.90;;;;;;5065742;28;20507;-63
2023/11/01 09:59:41;;;;;;;6.70;2.70;;;12.30;99.90;;;;;;5051765;28;20179;-62
2023/11/01 10:02:10;;;;;;;2.60;2.40;;;12.40;99.90;;;;;;5056569;28;20409;-64
2023/11/01 10:04:38;;;;;;;5.43;3.10;;;12.60;99.90;;;;;;5050855;28;20904;-62
2023/11/01 10:07:07;;;;;;;5.50;2.50;;;12.60;99.90;;;;;;5031855;28;20430;-60
2023/11/01 10:09:35;;;;;;;11.17;2.77;;;12.50;99.90;;;;;;5047604;28;20431;-63
2023/11/01 10:12:01;;;;;;;4.20;2.30;;;12.50;99.90;;;;;;5050932;28;20453;-63
2023/11/01 10:14:32;;;;;;;3.60;2.00;;;12.60;99.90;;;;;;5050929;28;20421;-63
2023/11/01 10:16:58;;;;;;;3.20;2.33;;;12.50;99.90;;;;;;5050926;28;20238;-62
2023/11/01 10:19:25;;;;;;;5.10;2.93;;;12.60;99.90;;;;;;5051135;28;20753;-62
2023/11/01 10:21:52;;;;;;;5.40;3.30;;;12.60;99.90;;;;;;5051268;28;20409;-64
2023/11/01 10:24:18;;;;;;;2.67;1.83;;;12.70;99.90;;;;;;5051701;28;20455;-63
2023/11/01 10:26:43;;;;;;;7.43;2.80;;;12.80;99.90;;;;;;5052609;28;20448;-63
2023/11/01 10:29:09;;;;;;;4.20;2.57;;;12.90;99.90;;;;;;5054410;28;20424;-63
2023/11/01 10:31:35;;;;;;;2.23;2.03;;;12.80;99.90;;;;;;5054751;28;20203;-63
2023/11/01 10:34:11;;;;;;;3.77;2.10;;;12.90;99.90;;;;;;5074384;28;20175;-62
2023/11/01 10:36:53;;;;;;;2.90;2.17;;;12.90;99.90;;;;;;5074430;28;20539;-63
2023/11/01 10:39:20;;;;;;;5.47;2.90;;;12.90;99.90;;;;;;5060625;28;20414;-63
2023/11/01 10:41:50;;;;;;;6.73;2.63;;;13.20;99.90;;;;;;5052138;28;20436;-64
2023/11/01 10:44:17;;;;;;;3.47;2.53;;;13.30;99.90;;;;;;5054412;28;20422;-64
2023/11/01 10:46:43;;;;;;;5.17;1.93;;;13.40;99.90;;;;;;5053904;28;20517;-64
2023/11/01 10:49:12;;;;;;;3.43;2.60;;;13.40;99.90;;;;;;5054709;28;20415;-62
2023/11/01 10:51:40;;;;;;;3.10;1.90;;;13.60;99.90;;;;;;5053876;28;20457;-63
2023/11/01 10:54:07;;;;;;;2.10;1.90;;;13.90;99.90;;;;;;5053884;28;20417;-63
2023/11/01 10:56:33;;;;;;;2.70;2.50;;;14.10;99.90;;;;;;5070633;28;20919;-60
2023/11/01 10:59:07;;;;;;;3.10;2.80;;;14.00;99.90;;;;;;5056822;28;20524;-61
2023/11/01 11:01:46;;;;;;;2.77;2.30;;;14.00;99.90;;;;;;5066724;28;20178;-63
2023/11/01 11:04:26;;;;;;;2.60;2.40;;;14.00;99.90;;;;;;5073589;28;20896;-62
2023/11/01 11:06:58;;;;;;;3.17;2.03;;;14.10;99.90;;;;;;5074055;28;20488;-64
2023/11/01 11:09:25;;;;;;;3.30;2.90;;;14.10;99.90;;;;;;5052980;28;20439;-66
2023/11/01 11:12:26;;;;;;;4.60;2.40;;;14.20;99.90;;;;;;5044017;28;20454;-63
2023/11/01 11:14:52;;;;;;;3.50;2.03;;;14.20;99.90;;;;;;4981602;28;20437;-63
2023/11/01 11:17:19;;;;;;;3.10;1.80;;;14.50;99.90;;;;;;5038897;28;20473;-64
2023/11/01 11:20:09;;;;;;;8.50;2.30;;;14.50;99.90;;;;;;5054167;28;20412;-63
2023/11/01 11:23:03;;;;;;;6.33;2.07;;;14.50;99.90;;;;;;5052941;28;20786;-65
2023/11/01 11:28:31;;;;;;;3.80;2.07;;;14.30;99.90;;;;;;5052702;28;20489;-63
2023/11/01 11:31:05;;;;;;;2.27;2.07;;;14.50;99.90;;;;;;5052010;28;20442;-61
2023/11/01 11:33:33;;;;;;;5.50;2.20;;;14.60;99.90;;;;;;5051762;28;20427;-62
2023/11/01 11:36:18;;;;;;;6.00;1.93;;;14.50;99.90;;;;;;5049506;28;20496;-63
2023/11/01 11:38:51;;;;;;;3.00;2.23;;;14.60;99.90;;;;;;5070738;28;20573;-62
2023/11/01 11:41:17;;;;;;;3.30;2.50;;;14.50;99.90;;;;;;5052055;28;20431;-62
2023/11/01 11:44:01;;;;;;;1.90;1.63;;;14.60;99.90;;;;;;5052510;28;20412;-62
2023/11/01 11:46:50;;;;;;;2.60;1.60;;;14.70;99.90;;;;;;5037415;28;20448;-62
2023/11/01 11:49:28;;;;;;;1.50;1.40;;;14.80;99.90;;;;;;5056847;28;20432;-62
2023/11/01 11:51:59;;;;;;;2.23;1.73;;;14.80;99.90;;;;;;5044819;28;20999;-62
2023/11/01 11:54:30;;;;;;;3.37;1.60;;;14.80;99.90;;;;;;5062392;28;20427;-63
2023/11/01 11:57:08;;;;;;;3.53;2.10;;;14.80;99.90;;;;;;5054180;28;20951;-62
2023/11/01 11:59:35;;;;;;;2.00;1.80;;;14.90;99.90;;;;;;5054123;28;20440;-63
2023/11/01 12:02:12;;;;;;;3.10;1.93;;;14.90;99.90;;;;;;5060996;28;20462;-65
2023/11/01 12:04:42;;;;;;;3.00;1.70;;;14.80;99.90;;;;;;5057161;28;20454;-63
2023/11/01 12:07:16;;;;;;;1.50;1.40;;;15.00;99.90;;;;;;5064641;28;20430;-63
2023/11/01 12:09:47;;;;;;;2.43;2.10;;;14.90;99.90;;;;;;5049356;28;20830;-62
2023/11/01 12:12:13;;;;;;;2.50;1.40;;;14.80;99.90;;;;;;5042245;28;20465;-64
2023/11/01 12:14:40;;;;;;;4.70;1.80;;;14.70;99.90;;;;;;5048947;28;20975;-63
2023/11/01 12:17:06;;;;;;;2.70;1.50;;;14.70;99.90;;;;;;5052717;28;20901;-63
2023/11/01 12:19:33;;;;;;;3.77;2.10;;;14.70;99.90;;;;;;5047187;28;20431;-63
2023/11/01 12:22:00;;;;;;;3.37;1.60;;;14.80;99.90;;;;;;5038960;28;20808;-63
2023/11/01 12:24:28;;;;;;;3.50;2.23;;;14.90;99.90;;;;;;5048847;28;20439;-63
2023/11/01 12:27:01;;;;;;;4.13;1.70;;;14.70;99.90;;;;;;5049627;28;20459;-65
2023/11/01 12:29:49;;;;;;;4.80;1.80;;;14.80;99.90;;;;;;5035455;28;20477;-63
2023/11/01 12:32:22;;;;;;;5.37;2.47;;;15.00;99.90;;;;;;5048731;28;20465;-64
2023/11/01 12:34:47;;;;;;;2.60;1.87;;;15.00;99.90;;;;;;5058977;28;20440;-65
2023/11/01 12:37:19;;;;;;;1.63;1.53;;;14.90;99.90;;;;;;5048609;28;20494;-63
2023/11/01 12:40:18;;;;;;;3.40;1.60;;;14.90;99.90;;;;;;5057698;28;20191;-63
2023/11/01 12:42:51;;;;;;;1.67;1.20;;;14.90;99.90;;;;;;5049039;28;20437;-68
2023/11/01 12:45:18;;;;;;;13.40;1.70;;;14.80;99.90;;;;;;5050885;28;20797;-63
2023/11/01 12:47:46;;;;;;;1.77;1.67;;;14.80;99.90;;;;;;5055099;28;20423;-65
2023/11/01 12:50:17;;;;;;;1.37;1.07;;;14.90;99.90;;;;;;5053422;28;20441;-66
2023/11/01 12:52:43;;;;;;;3.10;1.63;;;15.00;99.90;;;;;;5051121;28;20466;-65
2023/11/01 12:55:09;;;;;;;2.77;1.30;;;14.90;99.90;;;;;;5050942;28;20420;-64
2023/11/01 12:57:42;;;;;;;1.43;1.20;;;15.00;99.90;;;;;;5061000;28;20410;-64